Time;durP1;ratioP1;P1;durP2;ratioP2;P2;SDS_P1;SDS_P2;PMS_P1;PMS_P2;Temp;Humidity;BMP_temperature;BMP_pressure;BME280_temperature;BME280_humidity;BME280_pressure;Samples;Min_cycle;Max_cycle;Signal;HPM_P1;HPM_P2
2021/09/21 00:01:32;;;;;;;0.10;0.10;;;;;;;;;;5095562;28;20054;-90
2021/09/21 00:03:58;;;;;;;0.10;0.10;;;;;;;;;;5095747;28;20423;-90
2021/09/21 00:06:24;;;;;;;0.10;0.10;;;;;;;;;;5112173;28;20047;-90
2021/09/21 00:08:50;;;;;;;0.10;0.10;;;;;;;;;;5095906;28;20135;-90
2021/09/21 00:11:16;;;;;;;0.10;0.10;;;;;;;;;;5078592;28;20051;-89
2021/09/21 00:13:42;;;;;;;0.10;0.10;;;;;;;;;;5095132;28;20040;-90
2021/09/21 00:16:08;;;;;;;0.10;0.10;;;;;;;;;;5111845;28;20047;-90
2021/09/21 00:18:34;;;;;;;0.10;0.10;;;;;;;;;;5112012;28;20059;-89
2021/09/21 00:21:00;;;;;;;0.10;0.10;;;;;;;;;;5095103;28;20036;-89
2021/09/21 00:23:26;;;;;;;0.10;0.10;;;;;;;;;;5095021;28;20035;-89
2021/09/21 00:25:52;;;;;;;0.10;0.10;;;;;;;;;;5094986;28;20069;-89
2021/09/21 00:28:18;;;;;;;0.10;0.10;;;;;;;;;;5095124;28;20040;-89
2021/09/21 00:30:51;;;;;;;0.10;0.10;;;;;;;;;;5111573;28;20035;-89
2021/09/21 00:33:19;;;;;;;0.10;0.10;;;;;;;;;;5095590;28;20052;-89
2021/09/21 00:35:45;;;;;;;0.10;0.10;;;;;;;;;;5094934;28;20123;-88
2021/09/21 00:38:11;;;;;;;0.10;0.10;;;;;;;;;;5111533;28;20047;-90
2021/09/21 00:40:37;;;;;;;0.10;0.10;;;;;;;;;;5094884;28;20142;-91
2021/09/21 00:43:03;;;;;;;0.10;0.10;;;;;;;;;;5077848;28;20442;-89
2021/09/21 00:45:29;;;;;;;0.10;0.10;;;;;;;;;;5094441;28;20475;-89
2021/09/21 00:47:55;;;;;;;0.13;0.13;;;;;;;;;;5077524;28;20092;-89
2021/09/21 00:50:21;;;;;;;0.10;0.10;;;;;;;;;;5094534;28;20384;-90
2021/09/21 00:52:48;;;;;;;0.10;0.10;;;;;;;;;;5111227;28;20081;-89
2021/09/21 00:55:15;;;;;;;0.10;0.10;;;;;;;;;;5094462;28;20375;-89
2021/09/21 00:57:40;;;;;;;0.10;0.10;;;;;;;;;;5094234;28;20406;-89
2021/09/21 01:00:07;;;;;;;0.10;0.10;;;;;;;;;;5111670;28;20040;-90
2021/09/21 01:02:33;;;;;;;0.10;0.10;;;;;;;;;;5094484;28;20126;-90
2021/09/21 01:04:59;;;;;;;0.10;0.10;;;;;;;;;;5094540;28;20082;-89
2021/09/21 01:07:24;;;;;;;0.10;0.10;;;;;;;;;;5110139;27;20055;-89
2021/09/21 01:09:59;;;;;;;0.10;0.10;;;;;;;;;;5094166;28;20064;-89
2021/09/21 01:12:25;;;;;;;0.10;0.10;;;;;;;;;;5111012;28;20040;-89
2021/09/21 01:14:51;;;;;;;0.10;0.10;;;;;;;;;;5093853;28;20119;-88
2021/09/21 01:17:17;;;;;;;0.10;0.10;;;;;;;;;;5111025;28;20036;-88
2021/09/21 01:19:43;;;;;;;0.10;0.10;;;;;;;;;;5110943;28;20032;-87
2021/09/21 01:22:09;;;;;;;0.10;0.10;;;;;;;;;;5094163;28;20071;-88
2021/09/21 01:24:35;;;;;;;0.10;0.10;;;;;;;;;;5093859;28;20032;-88
2021/09/21 01:27:01;;;;;;;0.10;0.10;;;;;;;;;;5093737;28;20044;-87
2021/09/21 01:29:27;;;;;;;0.10;0.10;;;;;;;;;;5077110;28;20062;-88
2021/09/21 01:31:53;;;;;;;0.10;0.10;;;;;;;;;;5110755;28;20114;-87
2021/09/21 01:34:19;;;;;;;0.10;0.10;;;;;;;;;;5093467;28;20047;-88
2021/09/21 01:36:45;;;;;;;0.10;0.10;;;;;;;;;;5093526;28;20044;-88
2021/09/21 01:39:11;;;;;;;0.10;0.10;;;;;;;;;;5093870;28;20035;-88
2021/09/21 01:41:37;;;;;;;0.10;0.10;;;;;;;;;;5110698;28;20035;-88
2021/09/21 01:44:03;;;;;;;0.10;0.10;;;;;;;;;;5110575;28;20135;-88
2021/09/21 01:46:29;;;;;;;0.10;0.10;;;;;;;;;;5093786;28;20039;-89
2021/09/21 01:48:55;;;;;;;0.10;0.10;;;;;;;;;;5110493;28;20122;-89
2021/09/21 01:51:37;;;;;;;0.10;0.10;;;;;;;;;;5093590;28;20044;-89
2021/09/21 01:54:18;;;;;;;0.10;0.10;;;;;;;;;;5079226;28;20531;-89
2021/09/21 01:59:28;;;;;;;0.10;0.10;;;;;;;;;;5096236;28;20501;-88
2021/09/21 02:01:54;;;;;;;0.10;0.10;;;;;;;;;;5093542;28;20036;-88
2021/09/21 02:04:20;;;;;;;0.10;0.10;;;;;;;;;;5093393;28;20408;-89
2021/09/21 02:06:46;;;;;;;0.10;0.10;;;;;;;;;;5110392;28;20040;-88
2021/09/21 02:09:13;;;;;;;0.10;0.10;;;;;;;;;;5093610;28;20555;-89
2021/09/21 02:11:39;;;;;;;0.10;0.10;;;;;;;;;;5093600;28;20501;-89
2021/09/21 02:14:07;;;;;;;0.10;0.10;;;;;;;;;;5093380;28;20082;-89
2021/09/21 02:16:33;;;;;;;0.10;0.10;;;;;;;;;;5076925;28;20043;-89
2021/09/21 02:18:59;;;;;;;0.10;0.10;;;;;;;;;;5095372;28;20104;-89
2021/09/21 02:21:25;;;;;;;0.10;0.10;;;;;;;;;;5097355;28;20042;-89
2021/09/21 02:23:51;;;;;;;0.10;0.10;;;;;;;;;;5114033;28;20504;-89
2021/09/21 02:26:17;;;;;;;0.10;0.10;;;;;;;;;;5097452;28;20062;-90
2021/09/21 02:28:43;;;;;;;0.10;0.10;;;;;;;;;;5114066;28;20044;-89
2021/09/21 02:31:09;;;;;;;0.10;0.10;;;;;;;;;;5114102;28;20051;-90
2021/09/21 02:33:36;;;;;;;0.10;0.10;;;;;;;;;;5096866;28;20131;-90
2021/09/21 02:36:02;;;;;;;0.10;0.10;;;;;;;;;;5097097;28;20188;-90
2021/09/21 02:38:28;;;;;;;0.20;0.20;;;;;;;;;;5097222;28;20047;-90
2021/09/21 02:40:54;;;;;;;0.10;0.10;;;;;;;;;;5097125;28;20462;-89
2021/09/21 02:43:19;;;;;;;0.17;0.17;;;;;;;;;;5097229;28;20044;-88
2021/09/21 02:45:45;;;;;;;0.10;0.10;;;;;;;;;;5097035;28;20040;-90
2021/09/21 02:48:11;;;;;;;0.10;0.10;;;;;;;;;;5080197;28;20051;-90
2021/09/21 02:50:37;;;;;;;0.10;0.10;;;;;;;;;;5097006;28;20047;-90
2021/09/21 02:53:03;;;;;;;0.10;0.10;;;;;;;;;;5114137;28;20035;-90
2021/09/21 02:55:29;;;;;;;0.10;0.10;;;;;;;;;;5097204;28;20043;-90
2021/09/21 02:57:55;;;;;;;0.10;0.10;;;;;;;;;;5096819;28;20039;-89
2021/09/21 03:00:24;;;;;;;0.10;0.10;;;;;;;;;;5113728;28;20036;-90
2021/09/21 03:02:51;;;;;;;0.10;0.10;;;;;;;;;;5080240;28;20046;-90
2021/09/21 03:05:22;;;;;;;0.10;0.10;;;;;;;;;;5079839;28;20039;-89
2021/09/21 03:08:01;;;;;;;0.10;0.10;;;;;;;;;;5080503;28;20088;-89
2021/09/21 03:18:13;;;;;;;0.10;0.10;;;;;;;;;;5113236;28;20051;-90
2021/09/21 03:20:39;;;;;;;0.10;0.10;;;;;;;;;;5096283;28;20035;-90
2021/09/21 03:23:05;;;;;;;0.10;0.10;;;;;;;;;;5096660;28;20093;-90
2021/09/21 03:25:31;;;;;;;0.10;0.10;;;;;;;;;;5096198;28;20031;-90
2021/09/21 03:27:57;;;;;;;0.10;0.10;;;;;;;;;;5096357;28;20040;-89
2021/09/21 03:30:23;;;;;;;0.10;0.10;;;;;;;;;;5095164;28;20039;-89
2021/09/21 03:32:49;;;;;;;0.20;0.20;;;;;;;;;;5095947;28;20044;-89
2021/09/21 03:35:15;;;;;;;0.10;0.10;;;;;;;;;;5079061;28;20062;-89
2021/09/21 03:37:41;;;;;;;0.10;0.10;;;;;;;;;;5078958;28;20047;-89
2021/09/21 03:40:08;;;;;;;0.10;0.10;;;;;;;;;;5112687;28;20092;-89
2021/09/21 03:42:34;;;;;;;0.10;0.10;;;;;;;;;;5079172;28;20364;-89
2021/09/21 03:45:00;;;;;;;0.10;0.10;;;;;;;;;;5095489;28;20089;-89
2021/09/21 03:47:26;;;;;;;0.10;0.10;;;;;;;;;;5112538;28;20513;-89
2021/09/21 03:49:52;;;;;;;0.10;0.10;;;;;;;;;;5095676;28;20053;-89
2021/09/21 03:52:18;;;;;;;0.10;0.10;;;;;;;;;;5096044;28;20051;-89
2021/09/21 03:54:44;;;;;;;0.10;0.10;;;;;;;;;;5112431;28;20044;-89
2021/09/21 03:57:10;;;;;;;0.10;0.10;;;;;;;;;;5112347;28;20056;-89
2021/09/21 03:59:36;;;;;;;0.10;0.10;;;;;;;;;;5095417;28;20161;-89
2021/09/21 04:02:02;;;;;;;0.10;0.10;;;;;;;;;;5095737;28;20043;-89
2021/09/21 04:04:28;;;;;;;0.10;0.10;;;;;;;;;;5112262;28;20047;-89
2021/09/21 04:06:54;;;;;;;0.10;0.10;;;;;;;;;;5112302;28;20422;-88
2021/09/21 04:09:20;;;;;;;0.10;0.10;;;;;;;;;;5078507;28;20050;-88
2021/09/21 04:11:46;;;;;;;0.10;0.10;;;;;;;;;;5094563;28;20566;-88
2021/09/21 04:14:12;;;;;;;0.10;0.10;;;;;;;;;;5095178;28;20039;-89
2021/09/21 04:16:38;;;;;;;0.10;0.10;;;;;;;;;;5112111;28;20039;-89
2021/09/21 04:19:04;;;;;;;0.10;0.10;;;;;;;;;;5112198;28;20057;-89
2021/09/21 04:21:30;;;;;;;0.10;0.10;;;;;;;;;;5095310;28;20040;-88
2021/09/21 04:23:56;;;;;;;0.10;0.10;;;;;;;;;;5095279;28;20118;-90
2021/09/21 04:26:22;;;;;;;0.10;0.10;;;;;;;;;;5095303;28;20105;-90
2021/09/21 04:28:48;;;;;;;0.10;0.10;;;;;;;;;;5112032;28;20571;-89
2021/09/21 04:31:16;;;;;;;0.10;0.10;;;;;;;;;;5095023;28;20122;-90
2021/09/21 04:33:42;;;;;;;0.20;0.20;;;;;;;;;;5094736;28;20298;-89
2021/09/21 04:36:09;;;;;;;0.10;0.10;;;;;;;;;;5094688;28;20048;-90
2021/09/21 04:38:35;;;;;;;0.10;0.10;;;;;;;;;;5109081;28;20039;-89
2021/09/21 04:41:03;;;;;;;0.10;0.10;;;;;;;;;;5094779;28;20036;-90
2021/09/21 04:43:29;;;;;;;0.10;0.10;;;;;;;;;;5094914;28;20115;-89
2021/09/21 04:45:55;;;;;;;0.10;0.10;;;;;;;;;;5094708;28;20125;-89
2021/09/21 04:48:21;;;;;;;0.10;0.10;;;;;;;;;;5094602;28;20046;-89
2021/09/21 04:50:47;;;;;;;0.10;0.10;;;;;;;;;;5094313;28;20040;-89
2021/09/21 04:53:13;;;;;;;0.10;0.10;;;;;;;;;;5111352;28;20448;-89
2021/09/21 04:55:39;;;;;;;0.10;0.10;;;;;;;;;;5094396;28;20043;-89
2021/09/21 04:58:05;;;;;;;0.10;0.10;;;;;;;;;;5094399;28;20044;-88
2021/09/21 05:00:31;;;;;;;0.10;0.10;;;;;;;;;;5111164;28;20031;-89
2021/09/21 05:02:57;;;;;;;0.10;0.10;;;;;;;;;;5111301;28;20061;-89
2021/09/21 05:05:23;;;;;;;0.10;0.10;;;;;;;;;;5077630;28;20071;-89
2021/09/21 05:07:49;;;;;;;0.10;0.10;;;;;;;;;;5094099;28;20126;-89
2021/09/21 05:10:16;;;;;;;0.10;0.10;;;;;;;;;;5077532;28;20481;-89
2021/09/21 05:12:42;;;;;;;0.10;0.10;;;;;;;;;;5094056;28;20122;-89
2021/09/21 05:15:08;;;;;;;0.10;0.10;;;;;;;;;;5077835;28;20078;-89
2021/09/21 05:17:34;;;;;;;0.10;0.10;;;;;;;;;;5094283;28;20044;-89
2021/09/21 05:20:00;;;;;;;0.10;0.10;;;;;;;;;;5112034;28;20429;-94
2021/09/21 05:22:26;;;;;;;0.10;0.10;;;;;;;;;;5077675;28;20466;-89
2021/09/21 05:24:52;;;;;;;0.10;0.10;;;;;;;;;;5094308;28;20078;-89
2021/09/21 05:27:18;;;;;;;0.10;0.10;;;;;;;;;;5077682;28;20046;-89
2021/09/21 05:29:44;;;;;;;0.20;0.20;;;;;;;;;;5093914;28;20411;-89
2021/09/21 05:32:10;;;;;;;0.10;0.10;;;;;;;;;;5094200;28;20039;-89
2021/09/21 05:34:36;;;;;;;0.10;0.10;;;;;;;;;;5093759;28;20325;-89
2021/09/21 05:37:02;;;;;;;0.10;0.10;;;;;;;;;;5110813;28;20415;-90
2021/09/21 05:39:28;;;;;;;0.10;0.10;;;;;;;;;;5110896;28;20032;-89
2021/09/21 05:41:54;;;;;;;0.10;0.10;;;;;;;;;;5110848;28;20042;-89
2021/09/21 05:44:20;;;;;;;0.10;0.10;;;;;;;;;;5094025;28;20039;-89
2021/09/21 05:46:46;;;;;;;0.10;0.10;;;;;;;;;;5093791;28;20063;-89
2021/09/21 05:49:12;;;;;;;0.10;0.10;;;;;;;;;;5093899;28;20050;-89
2021/09/21 05:51:38;;;;;;;0.10;0.10;;;;;;;;;;5077397;28;20130;-89
2021/09/21 05:54:04;;;;;;;0.35;0.30;;;;;;;;;;5096296;28;20092;-88
2021/09/21 05:56:30;;;;;;;0.10;0.10;;;;;;;;;;5097825;28;20138;-87
2021/09/21 05:58:56;;;;;;;0.10;0.10;;;;;;;;;;5115191;28;20335;-91
2021/09/21 06:01:22;;;;;;;0.10;0.10;;;;;;;;;;5081288;28;20052;-89
2021/09/21 06:03:48;;;;;;;0.10;0.10;;;;;;;;;;5098159;28;20062;-93
2021/09/21 06:06:14;;;;;;;0.10;0.10;;;;;;;;;;5099893;28;20528;-90
2021/09/21 06:08:40;;;;;;;0.10;0.10;;;;;;;;;;5098332;28;20375;-90
2021/09/21 06:11:06;;;;;;;0.10;0.10;;;;;;;;;;5081461;28;20031;-91
2021/09/21 06:13:32;;;;;;;0.10;0.10;;;;;;;;;;5081222;28;20485;-91
2021/09/21 06:15:58;;;;;;;0.20;0.20;;;;;;;;;;5115322;28;20040;-90
2021/09/21 06:18:24;;;;;;;0.10;0.10;;;;;;;;;;5115512;28;20554;-94
2021/09/21 06:20:50;;;;;;;0.10;0.10;;;;;;;;;;5098841;28;20046;-94
2021/09/21 06:23:18;;;;;;;0.10;0.10;;;;;;;;;;5098637;28;20036;-92
2021/09/21 06:25:44;;;;;;;0.10;0.10;;;;;;;;;;5081456;28;20035;-88
2021/09/21 06:28:10;;;;;;;0.15;0.15;;;;;;;;;;5114918;28;20374;-93
2021/09/21 06:30:36;;;;;;;0.10;0.10;;;;;;;;;;5098034;28;20104;-91
2021/09/21 06:33:02;;;;;;;0.10;0.10;;;;;;;;;;5097491;28;20101;-93
2021/09/21 06:35:28;;;;;;;0.10;0.10;;;;;;;;;;5098626;28;20055;-94
2021/09/21 06:37:54;;;;;;;0.10;0.10;;;;;;;;;;5082054;28;20047;-94
2021/09/21 06:40:20;;;;;;;0.10;0.10;;;;;;;;;;5099694;28;20454;-95
2021/09/21 06:42:46;;;;;;;0.10;0.10;;;;;;;;;;5114644;28;20129;-91
2021/09/21 06:45:13;;;;;;;0.10;0.10;;;;;;;;;;5097569;28;20200;-91
2021/09/21 06:47:39;;;;;;;0.10;0.10;;;;;;;;;;5097179;28;20043;-91
2021/09/21 06:50:05;;;;;;;0.15;0.15;;;;;;;;;;5097297;28;20078;-91
2021/09/21 06:52:31;;;;;;;0.10;0.10;;;;;;;;;;5097044;28;20118;-91
2021/09/21 06:54:57;;;;;;;0.10;0.10;;;;;;;;;;5114183;28;20078;-92
2021/09/21 06:57:23;;;;;;;0.40;0.40;;;;;;;;;;5097273;28;20039;-92
2021/09/21 06:59:49;;;;;;;0.10;0.10;;;;;;;;;;5097388;28;20217;-91
2021/09/21 07:02:15;;;;;;;0.10;0.10;;;;;;;;;;5080396;28;20144;-94
2021/09/21 07:04:41;;;;;;;0.10;0.10;;;;;;;;;;5097265;28;20040;-92
2021/09/21 07:07:07;;;;;;;0.10;0.10;;;;;;;;;;5097185;28;20462;-91
2021/09/21 07:09:33;;;;;;;0.15;0.15;;;;;;;;;;5096694;28;20039;-90
2021/09/21 07:12:00;;;;;;;0.10;0.10;;;;;;;;;;5079787;28;20039;-89
2021/09/21 07:14:26;;;;;;;0.10;0.10;;;;;;;;;;5096861;28;20047;-90
2021/09/21 07:16:52;;;;;;;0.10;0.10;;;;;;;;;;5096037;28;20439;-90
2021/09/21 07:19:18;;;;;;;0.15;0.15;;;;;;;;;;5096240;28;20503;-90
2021/09/21 07:21:47;;;;;;;0.10;0.10;;;;;;;;;;5096376;28;20172;-90
2021/09/21 07:24:14;;;;;;;0.10;0.10;;;;;;;;;;5079799;28;20039;-89
2021/09/21 07:26:40;;;;;;;0.10;0.10;;;;;;;;;;5095987;28;20062;-89
2021/09/21 07:29:06;;;;;;;0.10;0.10;;;;;;;;;;5078884;28;20044;-90
2021/09/21 07:31:32;;;;;;;0.10;0.10;;;;;;;;;;5096112;28;20113;-92
2021/09/21 07:33:58;;;;;;;0.10;0.10;;;;;;;;;;5079605;28;20055;-91
2021/09/21 07:36:24;;;;;;;0.10;0.10;;;;;;;;;;5112871;28;20386;-91
2021/09/21 07:38:50;;;;;;;0.10;0.10;;;;;;;;;;5096139;28;20043;-94
2021/09/21 07:41:16;;;;;;;0.10;0.10;;;;;;;;;;5113061;28;20036;-91
2021/09/21 07:43:44;;;;;;;0.10;0.10;;;;;;;;;;5079296;28;20122;-91
2021/09/21 07:46:10;;;;;;;0.10;0.10;;;;;;;;;;5095637;28;20117;-91
2021/09/21 07:48:36;;;;;;;0.10;0.10;;;;;;;;;;5095717;28;20036;-89
2021/09/21 07:51:02;;;;;;;0.10;0.10;;;;;;;;;;5095876;28;20040;-92
2021/09/21 07:53:27;;;;;;;0.10;0.10;;;;;;;;;;5079656;28;20035;-93
2021/09/21 07:55:53;;;;;;;0.10;0.10;;;;;;;;;;5079358;28;20040;-92
2021/09/21 07:58:19;;;;;;;0.10;0.10;;;;;;;;;;5095344;28;20054;-89
2021/09/21 08:00:46;;;;;;;0.10;0.10;;;;;;;;;;5095413;28;20047;-89
2021/09/21 08:03:12;;;;;;;0.10;0.10;;;;;;;;;;5095457;28;20035;-89
2021/09/21 08:05:38;;;;;;;0.10;0.10;;;;;;;;;;5095377;28;20313;-92
2021/09/21 08:08:04;;;;;;;0.10;0.10;;;;;;;;;;5095394;28;20139;-90
2021/09/21 08:10:30;;;;;;;0.10;0.10;;;;;;;;;;5095573;28;20043;-88
2021/09/21 08:12:56;;;;;;;0.10;0.10;;;;;;;;;;5111735;28;20451;-90
2021/09/21 08:15:24;;;;;;;0.10;0.10;;;;;;;;;;5078103;28;20035;-93
2021/09/21 08:17:50;;;;;;;0.10;0.10;;;;;;;;;;5078472;28;20042;-91
2021/09/21 08:20:16;;;;;;;0.10;0.10;;;;;;;;;;5095437;28;20387;-92
2021/09/21 08:22:42;;;;;;;0.10;0.10;;;;;;;;;;5112789;28;20099;-92
2021/09/21 08:25:08;;;;;;;0.10;0.10;;;;;;;;;;5095822;28;20035;-91
2021/09/21 08:27:36;;;;;;;0.10;0.10;;;;;;;;;;5078654;28;20035;-91
2021/09/21 08:30:03;;;;;;;0.10;0.10;;;;;;;;;;5095906;28;20044;-92
2021/09/21 08:32:30;;;;;;;0.10;0.10;;;;;;;;;;5078430;28;20039;-92
2021/09/21 08:34:56;;;;;;;0.38;0.20;;;;;;;;;;5095740;28;20379;-93
2021/09/21 08:37:22;;;;;;;0.10;0.10;;;;;;;;;;5078623;28;20040;-93
2021/09/21 08:39:48;;;;;;;0.10;0.10;;;;;;;;;;5095926;28;20059;-91
2021/09/21 08:42:14;;;;;;;0.10;0.10;;;;;;;;;;5095493;28;20185;-92
2021/09/21 08:44:40;;;;;;;0.20;0.20;;;;;;;;;;5078531;28;20077;-92
2021/09/21 08:47:06;;;;;;;0.10;0.10;;;;;;;;;;5095517;28;20139;-92
2021/09/21 08:49:32;;;;;;;0.20;0.20;;;;;;;;;;5078303;28;20533;-90
2021/09/21 08:51:59;;;;;;;0.10;0.10;;;;;;;;;;5095040;28;20039;-90
2021/09/21 08:54:25;;;;;;;0.13;0.13;;;;;;;;;;5094593;28;20138;-91
2021/09/21 08:56:53;;;;;;;0.10;0.10;;;;;;;;;;5094439;28;20043;-90
2021/09/21 08:59:27;;;;;;;0.10;0.10;;;;;;;;;;5111368;28;20031;-92
2021/09/21 09:01:53;;;;;;;0.10;0.10;;;;;;;;;;5078557;28;20035;-94
2021/09/21 09:04:19;;;;;;;0.10;0.10;;;;;;;;;;5095093;28;20035;-93
2021/09/21 09:06:49;;;;;;;0.10;0.10;;;;;;;;;;5078110;28;20047;-93
2021/09/21 09:09:20;;;;;;;0.10;0.10;;;;;;;;;;5077821;28;20042;-94
2021/09/21 09:11:46;;;;;;;0.13;0.13;;;;;;;;;;5078530;28;20043;-91
2021/09/21 09:14:19;;;;;;;0.10;0.10;;;;;;;;;;5077826;28;20043;-91
2021/09/21 09:16:45;;;;;;;0.10;0.10;;;;;;;;;;5094898;28;20355;-92
2021/09/21 09:19:12;;;;;;;0.10;0.10;;;;;;;;;;5078040;28;20042;-88
2021/09/21 09:21:39;;;;;;;0.20;0.20;;;;;;;;;;5110953;28;20042;-89
2021/09/21 09:24:09;;;;;;;0.10;0.10;;;;;;;;;;5077146;28;20043;-88
2021/09/21 09:26:36;;;;;;;0.10;0.10;;;;;;;;;;5094092;28;20039;-88
2021/09/21 09:29:02;;;;;;;0.55;0.55;;;;;;;;;;5113077;28;20054;-88
2021/09/21 09:31:28;;;;;;;0.10;0.10;;;;;;;;;;5098451;28;20035;-88
2021/09/21 09:34:14;;;;;;;0.20;0.20;;;;;;;;;;5098190;28;20096;-88
2021/09/21 09:36:48;;;;;;;0.10;0.10;;;;;;;;;;5114697;28;20284;-88
2021/09/21 09:39:14;;;;;;;0.10;0.10;;;;;;;;;;5081393;28;20096;-88
2021/09/21 09:41:41;;;;;;;0.10;0.10;;;;;;;;;;5097816;28;20036;-88
2021/09/21 09:44:07;;;;;;;0.10;0.10;;;;;;;;;;5098171;28;20131;-88
2021/09/21 09:47:04;;;;;;;0.10;0.10;;;;;;;;;;5097765;28;20044;-88
2021/09/21 09:49:30;;;;;;;0.10;0.10;;;;;;;;;;5094441;28;20059;-88
2021/09/21 09:51:57;;;;;;;0.10;0.10;;;;;;;;;;5114705;28;20040;-88
2021/09/21 09:54:23;;;;;;;0.10;0.10;;;;;;;;;;5081115;28;20046;-88
2021/09/21 09:56:49;;;;;;;0.20;0.20;;;;;;;;;;5080768;28;20039;-88
2021/09/21 09:59:15;;;;;;;0.20;0.20;;;;;;;;;;5080720;28;20039;-88
2021/09/21 10:01:42;;;;;;;0.20;0.20;;;;;;;;;;5097828;28;20040;-88
2021/09/21 10:04:08;;;;;;;0.10;0.10;;;;;;;;;;5097757;28;20042;-87
2021/09/21 10:06:34;;;;;;;0.20;0.20;;;;;;;;;;5097549;28;20036;-88
2021/09/21 10:09:00;;;;;;;0.10;0.10;;;;;;;;;;5097529;28;20035;-87
2021/09/21 10:11:29;;;;;;;0.10;0.10;;;;;;;;;;5097564;28;20035;-88
2021/09/21 10:13:57;;;;;;;0.13;0.13;;;;;;;;;;5097507;28;20074;-88
2021/09/21 10:16:23;;;;;;;0.20;0.20;;;;;;;;;;5097509;28;20066;-88
2021/09/21 10:18:53;;;;;;;0.20;0.20;;;;;;;;;;5075713;28;20522;-93
2021/09/21 10:21:20;;;;;;;0.10;0.10;;;;;;;;;;5071292;28;20471;-92
2021/09/21 10:23:47;;;;;;;0.10;0.10;;;;;;;;;;5080942;28;20043;-91
2021/09/21 10:26:13;;;;;;;0.10;0.10;;;;;;;;;;5097649;28;20044;-91
2021/09/21 10:28:39;;;;;;;0.10;0.10;;;;;;;;;;5097526;28;20455;-91
2021/09/21 10:31:11;;;;;;;0.10;0.10;;;;;;;;;;5083108;28;20036;-88
2021/09/21 10:33:36;;;;;;;0.10;0.10;;;;;;;;;;5080735;28;20151;-91
2021/09/21 10:36:02;;;;;;;0.20;0.20;;;;;;;;;;5097919;28;20123;-90
2021/09/21 10:38:28;;;;;;;0.32;0.32;;;;;;;;;;5097025;28;20556;-90
2021/09/21 10:41:01;;;;;;;0.10;0.10;;;;;;;;;;5113640;28;20036;-90
2021/09/21 10:43:34;;;;;;;0.20;0.20;;;;;;;;;;5080143;28;20036;-89
2021/09/21 10:46:13;;;;;;;0.10;0.10;;;;;;;;;;5097281;28;20035;-91
2021/09/21 10:48:40;;;;;;;0.20;0.20;;;;;;;;;;5081220;28;20414;-91
2021/09/21 10:51:06;;;;;;;0.20;0.20;;;;;;;;;;5097324;28;20039;-92
2021/09/21 10:53:32;;;;;;;0.10;0.10;;;;;;;;;;5097039;28;20044;-95
2021/09/21 10:55:59;;;;;;;0.10;0.10;;;;;;;;;;5080727;28;20085;-88
2021/09/21 10:58:25;;;;;;;0.10;0.10;;;;;;;;;;5096864;28;20490;-91
2021/09/21 11:00:51;;;;;;;0.10;0.10;;;;;;;;;;5097273;28;20058;-92
2021/09/21 11:03:17;;;;;;;0.10;0.10;;;;;;;;;;5097400;28;20549;-93
2021/09/21 11:05:43;;;;;;;0.10;0.10;;;;;;;;;;5076350;28;20506;-92
2021/09/21 11:08:12;;;;;;;0.10;0.10;;;;;;;;;;5093880;28;20047;-94
2021/09/21 11:10:41;;;;;;;0.10;0.10;;;;;;;;;;5061097;28;20071;-94
2021/09/21 11:13:17;;;;;;;0.57;0.57;;;;;;;;;;5060665;28;20044;-94
2021/09/21 11:15:43;;;;;;;0.10;0.10;;;;;;;;;;5061253;28;20036;-94
2021/09/21 11:18:10;;;;;;;0.10;0.10;;;;;;;;;;5080680;28;20050;-93
2021/09/21 11:20:55;;;;;;;0.10;0.10;;;;;;;;;;5096876;28;20036;-93
2021/09/21 11:23:22;;;;;;;0.20;0.20;;;;;;;;;;5096689;28;20498;-96
2021/09/21 11:25:48;;;;;;;0.75;0.75;;;;;;;;;;5097811;28;20041;-93
2021/09/21 11:28:14;;;;;;;0.20;0.20;;;;;;;;;;5097473;28;20162;-92
2021/09/21 11:30:41;;;;;;;0.40;0.40;;;;;;;;;;5096843;28;20058;-91
2021/09/21 11:33:30;;;;;;;0.77;0.77;;;;;;;;;;5095809;28;20039;-92
2021/09/21 11:35:58;;;;;;;0.32;0.32;;;;;;;;;;5084890;28;20544;-95
2021/09/21 11:38:24;;;;;;;0.52;0.52;;;;;;;;;;5081310;28;20036;-96
2021/09/21 11:40:51;;;;;;;0.10;0.10;;;;;;;;;;5080438;28;20092;-93
2021/09/21 11:43:18;;;;;;;0.22;0.22;;;;;;;;;;5080637;28;20067;-95
2021/09/21 11:45:45;;;;;;;0.47;0.47;;;;;;;;;;5096193;28;20141;-92
2021/09/21 11:48:11;;;;;;;0.10;0.10;;;;;;;;;;5096805;28;20219;-89
2021/09/21 11:50:38;;;;;;;0.10;0.10;;;;;;;;;;5078376;28;20046;-91
2021/09/21 11:53:10;;;;;;;0.20;0.20;;;;;;;;;;5112704;28;20222;-90
2021/09/21 11:55:45;;;;;;;0.10;0.10;;;;;;;;;;5113375;28;20458;-87
2021/09/21 11:58:12;;;;;;;0.20;0.20;;;;;;;;;;5095417;28;20047;-89
2021/09/21 12:00:39;;;;;;;0.20;0.20;;;;;;;;;;5079045;28;20036;-92
2021/09/21 12:03:14;;;;;;;0.20;0.20;;;;;;;;;;5079487;28;20389;-87
2021/09/21 12:05:41;;;;;;;0.10;0.10;;;;;;;;;;5078888;28;20453;-89
2021/09/21 12:08:08;;;;;;;0.20;0.20;;;;;;;;;;5095751;28;20039;-89
2021/09/21 12:10:35;;;;;;;0.20;0.20;;;;;;;;;;5095488;28;20040;-89
2021/09/21 12:13:02;;;;;;;0.20;0.20;;;;;;;;;;5095510;28;20142;-89
2021/09/21 12:15:29;;;;;;;0.10;0.10;;;;;;;;;;5095201;28;20040;-89
2021/09/21 12:17:55;;;;;;;0.20;0.20;;;;;;;;;;5095247;28;20035;-89
2021/09/21 12:20:23;;;;;;;0.38;0.20;;;;;;;;;;5095246;28;20036;-89
2021/09/21 12:22:50;;;;;;;5.63;0.50;;;;;;;;;;5095138;28;20035;-89
2021/09/21 12:25:16;;;;;;;0.20;0.20;;;;;;;;;;5095237;28;20055;-90
2021/09/21 12:27:42;;;;;;;0.15;0.15;;;;;;;;;;5094971;28;20047;-89
2021/09/21 12:30:08;;;;;;;0.20;0.20;;;;;;;;;;5095378;28;20043;-89
2021/09/21 12:32:35;;;;;;;0.15;0.15;;;;;;;;;;5095817;28;20501;-89
2021/09/21 12:35:02;;;;;;;0.20;0.20;;;;;;;;;;5077991;28;20055;-90
2021/09/21 12:37:28;;;;;;;0.10;0.10;;;;;;;;;;5095582;28;20048;-89
2021/09/21 12:39:58;;;;;;;0.10;0.10;;;;;;;;;;5095703;28;20043;-89
2021/09/21 12:42:24;;;;;;;0.20;0.20;;;;;;;;;;5078742;28;20065;-89
2021/09/21 12:44:50;;;;;;;0.10;0.10;;;;;;;;;;5095872;28;20053;-90
2021/09/21 12:47:16;;;;;;;0.10;0.10;;;;;;;;;;5112632;28;20130;-88
2021/09/21 12:49:42;;;;;;;0.35;0.17;;;;;;;;;;5094992;28;20126;-90
2021/09/21 12:52:08;;;;;;;0.10;0.10;;;;;;;;;;5094408;28;20092;-89
2021/09/21 12:54:34;;;;;;;0.20;0.20;;;;;;;;;;5094715;28;20073;-92
2021/09/21 12:57:02;;;;;;;0.10;0.10;;;;;;;;;;5094983;28;20036;-90
2021/09/21 12:59:29;;;;;;;0.20;0.20;;;;;;;;;;5095967;28;20043;-89
2021/09/21 13:01:56;;;;;;;0.20;0.20;;;;;;;;;;5121661;28;20040;-90
2021/09/21 13:04:23;;;;;;;0.10;0.10;;;;;;;;;;5117987;28;20066;-89
2021/09/21 13:06:51;;;;;;;0.30;0.30;;;;;;;;;;5101801;28;20065;-88
2021/09/21 13:09:17;;;;;;;0.10;0.10;;;;;;;;;;5081504;28;20051;-90
2021/09/21 13:11:43;;;;;;;0.10;0.10;;;;;;;;;;5102449;28;20075;-89
2021/09/21 13:14:09;;;;;;;0.10;0.10;;;;;;;;;;5117948;27;20034;-89
2021/09/21 13:16:38;;;;;;;0.10;0.10;;;;;;;;;;5099566;28;20051;-87
2021/09/21 13:19:04;;;;;;;0.10;0.10;;;;;;;;;;5114214;28;20044;-88
2021/09/21 13:21:31;;;;;;;0.20;0.20;;;;;;;;;;5080483;28;20465;-89
2021/09/21 13:23:57;;;;;;;0.10;0.10;;;;;;;;;;5094057;28;20512;-88
2021/09/21 13:26:23;;;;;;;0.10;0.10;;;;;;;;;;5094084;28;20115;-89
2021/09/21 13:28:51;;;;;;;0.10;0.10;;;;;;;;;;5111121;28;20091;-89
2021/09/21 13:31:17;;;;;;;0.10;0.10;;;;;;;;;;5094348;28;20435;-88
2021/09/21 13:33:44;;;;;;;0.10;0.10;;;;;;;;;;5110746;28;20097;-87
2021/09/21 13:36:11;;;;;;;0.10;0.10;;;;;;;;;;5077396;28;20143;-90
2021/09/21 13:38:36;;;;;;;0.65;0.65;;;;;;;;;;5093768;28;20043;-90
2021/09/21 13:41:02;;;;;;;0.10;0.10;;;;;;;;;;5093869;28;20059;-91
2021/09/21 13:43:28;;;;;;;0.10;0.10;;;;;;;;;;5094068;28;20117;-90
2021/09/21 13:45:56;;;;;;;0.15;0.15;;;;;;;;;;5093748;28;20040;-89
2021/09/21 13:48:22;;;;;;;0.10;0.10;;;;;;;;;;5093728;28;20089;-89
2021/09/21 13:50:48;;;;;;;1.65;0.32;;;;;;;;;;5093922;28;20040;-90
2021/09/21 13:53:13;;;;;;;0.10;0.10;;;;;;;;;;5077082;28;20040;-89
2021/09/21 13:55:39;;;;;;;0.20;0.20;;;;;;;;;;5093874;28;20075;-89
2021/09/21 13:58:05;;;;;;;0.20;0.20;;;;;;;;;;5076826;28;20085;-91
2021/09/21 14:00:31;;;;;;;0.73;0.30;;;;;;;;;;5094142;28;20040;-91
2021/09/21 14:02:57;;;;;;;0.25;0.20;;;;;;;;;;5077194;28;20053;-89
2021/09/21 14:05:28;;;;;;;0.20;0.20;;;;;;;;;;5073214;28;20036;-91
2021/09/21 14:07:54;;;;;;;0.10;0.10;;;;;;;;;;5073449;28;20047;-91
2021/09/21 14:10:20;;;;;;;0.10;0.10;;;;;;;;;;5090922;28;20104;-91
2021/09/21 14:12:46;;;;;;;0.17;0.17;;;;;;;;;;5073894;28;20040;-88
2021/09/21 14:15:12;;;;;;;0.20;0.20;;;;;;;;;;5075396;28;20069;-90
2021/09/21 14:17:40;;;;;;;0.20;0.20;;;;;;;;;;5077419;28;20059;-91
2021/09/21 14:20:06;;;;;;;0.10;0.10;;;;;;;;;;5077327;28;20036;-91
2021/09/21 14:22:32;;;;;;;0.10;0.10;;;;;;;;;;5076940;28;20089;-90
2021/09/21 14:24:59;;;;;;;0.10;0.10;;;;;;;;;;5077125;28;20044;-88
2021/09/21 14:27:27;;;;;;;0.10;0.10;;;;;;;;;;5093700;28;20036;-88
2021/09/21 14:29:53;;;;;;;0.10;0.10;;;;;;;;;;5077109;28;20040;-88
2021/09/21 14:32:19;;;;;;;0.10;0.10;;;;;;;;;;5095115;28;20028;-88
2021/09/21 14:34:45;;;;;;;0.17;0.17;;;;;;;;;;5093598;28;20059;-89
2021/09/21 14:37:11;;;;;;;0.17;0.17;;;;;;;;;;5076489;28;20094;-89
2021/09/21 14:39:37;;;;;;;0.10;0.10;;;;;;;;;;5093352;28;20040;-89
2021/09/21 14:42:03;;;;;;;0.20;0.20;;;;;;;;;;5076541;28;20044;-88
2021/09/21 14:44:29;;;;;;;0.10;0.10;;;;;;;;;;5076414;28;20032;-89
2021/09/21 14:46:55;;;;;;;0.10;0.10;;;;;;;;;;5093291;28;20036;-88
2021/09/21 14:49:21;;;;;;;0.10;0.10;;;;;;;;;;5076669;28;20058;-88
2021/09/21 14:51:47;;;;;;;0.10;0.10;;;;;;;;;;5076623;28;20044;-91